Time;durP1;ratioP1;P1;durP2;ratioP2;P2;SDS_P1;SDS_P2;PMS_P1;PMS_P2;Temp;Humidity;BMP_temperature;BMP_pressure;BME280_temperature;BME280_humidity;BME280_pressure;Samples;Min_cycle;Max_cycle;Signal;HPM_P1;HPM_P2
2023/06/01 00:00:27;;;;;;;7.83;4.23;;;;;;;;;;5031259;28;20177;-81
2023/06/01 00:03:31;;;;;;;6.30;4.03;;;;;;;;;;5019455;28;20213;-82
2023/06/01 00:06:35;;;;;;;8.30;4.47;;;;;;;;;;4996525;28;20174;-81
2023/06/01 00:09:39;;;;;;;6.63;4.20;;;;;;;;;;4996813;28;20177;-81
2023/06/01 00:12:43;;;;;;;7.53;4.10;;;;;;;;;;5008000;28;20209;-81
2023/06/01 00:15:47;;;;;;;6.57;4.03;;;;;;;;;;5007886;28;20197;-80
2023/06/01 00:18:52;;;;;;;10.63;3.90;;;;;;;;;;5019417;28;20198;-81
2023/06/01 00:21:57;;;;;;;7.57;4.13;;;;;;;;;;5007549;28;20232;-81
2023/06/01 00:25:01;;;;;;;10.20;5.10;;;;;;;;;;5007433;28;20641;-81
2023/06/01 00:28:05;;;;;;;7.83;4.83;;;;;;;;;;5017386;28;20178;-81
2023/06/01 00:31:10;;;;;;;5.83;4.13;;;;;;;;;;4995374;28;20193;-81
2023/06/01 00:34:14;;;;;;;8.40;4.07;;;;;;;;;;5007300;28;20229;-81
2023/06/01 00:37:18;;;;;;;5.30;4.20;;;;;;;;;;5005941;28;20186;-81
2023/06/01 00:40:22;;;;;;;6.70;4.27;;;;;;;;;;5005910;28;20181;-80
2023/06/01 00:43:26;;;;;;;7.47;4.33;;;;;;;;;;5017274;28;20228;-81
2023/06/01 00:46:31;;;;;;;8.57;4.23;;;;;;;;;;4994593;28;20200;-80
2023/06/01 00:49:35;;;;;;;7.27;4.57;;;;;;;;;;5015440;28;20181;-80
2023/06/01 00:52:40;;;;;;;5.20;4.23;;;;;;;;;;5016968;28;20217;-80
2023/06/01 00:55:45;;;;;;;8.67;4.30;;;;;;;;;;5005113;28;20178;-80
2023/06/01 00:58:49;;;;;;;5.07;4.50;;;;;;;;;;5016851;28;20177;-80
2023/06/01 01:01:53;;;;;;;8.80;4.67;;;;;;;;;;5005381;28;20205;-80
2023/06/01 01:04:59;;;;;;;7.10;4.67;;;;;;;;;;4994477;28;20181;-81
2023/06/01 01:08:30;;;;;;;8.27;4.20;;;;;;;;;;5005707;28;20201;-81
2023/06/01 01:11:38;;;;;;;7.27;4.67;;;;;;;;;;4994596;28;20178;-80
2023/06/01 01:14:55;;;;;;;8.00;4.30;;;;;;;;;;5005511;28;20182;-80
2023/06/01 01:18:04;;;;;;;10.13;5.60;;;;;;;;;;5005084;28;20181;-80
2023/06/01 01:21:27;;;;;;;8.10;4.90;;;;;;;;;;4994341;28;20185;-80
2023/06/01 01:24:48;;;;;;;10.70;5.20;;;;;;;;;;5005171;28;20174;-81
2023/06/01 01:28:20;;;;;;;7.83;4.53;;;;;;;;;;5005888;28;20182;-80
2023/06/01 01:31:26;;;;;;;10.47;5.10;;;;;;;;;;5004755;28;20624;-80
2023/06/01 01:34:32;;;;;;;7.00;4.40;;;;;;;;;;5016107;28;20205;-80
2023/06/01 01:37:36;;;;;;;6.67;4.37;;;;;;;;;;5016615;28;20636;-80
2023/06/01 01:40:40;;;;;;;7.87;4.53;;;;;;;;;;5005028;28;20181;-80
2023/06/01 01:43:44;;;;;;;8.57;4.53;;;;;;;;;;5016230;28;20233;-80
2023/06/01 01:47:09;;;;;;;7.67;4.60;;;;;;;;;;4993924;28;20185;-80
2023/06/01 01:50:15;;;;;;;8.53;4.90;;;;;;;;;;5004435;28;20187;-80
2023/06/01 01:53:22;;;;;;;6.87;4.10;;;;;;;;;;4993338;28;20683;-80
2023/06/01 01:56:27;;;;;;;7.10;4.73;;;;;;;;;;5015882;28;20177;-81
2023/06/01 01:59:32;;;;;;;6.30;4.80;;;;;;;;;;5004210;28;20182;-80
2023/06/01 02:02:37;;;;;;;7.13;4.80;;;;;;;;;;5004531;28;20224;-80
2023/06/01 02:05:41;;;;;;;7.77;4.60;;;;;;;;;;5004690;28;20189;-81
2023/06/01 02:08:45;;;;;;;8.57;4.70;;;;;;;;;;5004402;28;20177;-80
2023/06/01 02:11:50;;;;;;;6.20;4.37;;;;;;;;;;5015588;28;20181;-80
2023/06/01 02:14:54;;;;;;;7.67;4.63;;;;;;;;;;4992856;28;20181;-80
2023/06/01 02:17:59;;;;;;;8.63;4.80;;;;;;;;;;5015623;28;20177;-80
2023/06/01 02:21:03;;;;;;;7.23;4.43;;;;;;;;;;5015412;28;20182;-81
2023/06/01 02:24:08;;;;;;;8.43;5.07;;;;;;;;;;4992892;28;20213;-80
2023/06/01 02:27:12;;;;;;;6.93;4.80;;;;;;;;;;5004299;28;20190;-80
2023/06/01 02:30:17;;;;;;;8.93;4.77;;;;;;;;;;4993668;28;20620;-81
2023/06/01 02:33:21;;;;;;;7.77;5.20;;;;;;;;;;5003824;28;20216;-80
2023/06/01 02:36:28;;;;;;;7.50;4.50;;;;;;;;;;5003753;28;20640;-80
2023/06/01 02:39:34;;;;;;;9.53;4.77;;;;;;;;;;4992997;28;20620;-80
2023/06/01 02:42:40;;;;;;;6.67;4.30;;;;;;;;;;5003896;28;20569;-81
2023/06/01 02:45:44;;;;;;;10.27;4.90;;;;;;;;;;5004316;28;20185;-80
2023/06/01 02:48:48;;;;;;;7.17;5.00;;;;;;;;;;4992521;28;20181;-80
2023/06/01 02:51:52;;;;;;;7.47;4.73;;;;;;;;;;5004054;28;20178;-80
2023/06/01 02:54:59;;;;;;;7.07;5.13;;;;;;;;;;4992844;28;20177;-80
2023/06/01 02:58:25;;;;;;;7.30;5.27;;;;;;;;;;5006837;28;20633;-80
2023/06/01 03:01:40;;;;;;;7.07;4.83;;;;;;;;;;5014905;28;20185;-80
2023/06/01 03:04:45;;;;;;;6.83;5.03;;;;;;;;;;4991974;28;20181;-80
2023/06/01 03:07:49;;;;;;;7.33;5.10;;;;;;;;;;5014693;28;20185;-80
2023/06/01 03:11:02;;;;;;;6.77;4.80;;;;;;;;;;5014759;28;20186;-80
2023/06/01 03:14:11;;;;;;;6.50;5.10;;;;;;;;;;4993146;28;20550;-80
2023/06/01 03:17:15;;;;;;;10.93;4.93;;;;;;;;;;4992356;28;20510;-81
2023/06/01 03:20:19;;;;;;;8.57;5.07;;;;;;;;;;4992491;28;20174;-80
2023/06/01 03:23:23;;;;;;;9.30;4.73;;;;;;;;;;5003213;28;20224;-81
2023/06/01 03:26:28;;;;;;;9.60;5.47;;;;;;;;;;5003682;28;20185;-80
2023/06/01 03:29:32;;;;;;;6.70;4.93;;;;;;;;;;5003689;28;20181;-80
2023/06/01 03:32:37;;;;;;;9.53;5.43;;;;;;;;;;5014380;28;20691;-80
2023/06/01 03:35:41;;;;;;;6.97;5.40;;;;;;;;;;4991867;28;20632;-80
2023/06/01 03:38:45;;;;;;;8.50;5.40;;;;;;;;;;5003532;28;20178;-81
2023/06/01 03:41:50;;;;;;;10.13;5.90;;;;;;;;;;4992419;28;20182;-80
2023/06/01 03:44:54;;;;;;;11.63;5.80;;;;;;;;;;5003070;28;20522;-80
2023/06/01 03:47:59;;;;;;;6.80;5.50;;;;;;;;;;5014716;28;20181;-80
2023/06/01 03:51:03;;;;;;;8.10;5.20;;;;;;;;;;4991400;28;20177;-80
2023/06/01 03:54:07;;;;;;;18.37;5.80;;;;;;;;;;5002390;28;20205;-80
2023/06/01 03:57:12;;;;;;;10.23;5.80;;;;;;;;;;4991992;28;20561;-80
2023/06/01 04:00:19;;;;;;;6.53;5.03;;;;;;;;;;5002712;28;20186;-80
2023/06/01 04:03:29;;;;;;;7.57;4.97;;;;;;;;;;5003343;28;20225;-80
2023/06/01 04:06:35;;;;;;;6.83;5.10;;;;;;;;;;5002628;28;20197;-80
2023/06/01 04:09:41;;;;;;;9.43;5.67;;;;;;;;;;5002524;28;20178;-81
2023/06/01 04:12:46;;;;;;;7.23;4.90;;;;;;;;;;5014247;28;20217;-80
2023/06/01 04:15:51;;;;;;;11.77;5.13;;;;;;;;;;4991703;28;20194;-80
2023/06/01 04:18:58;;;;;;;9.20;5.37;;;;;;;;;;4991580;28;20545;-80
2023/06/01 04:22:05;;;;;;;7.73;4.87;;;;;;;;;;5002903;28;20182;-80
2023/06/01 04:25:11;;;;;;;8.43;4.80;;;;;;;;;;5006203;28;20182;-80
2023/06/01 04:28:17;;;;;;;8.27;5.37;;;;;;;;;;4994877;28;20182;-81
2023/06/01 04:31:21;;;;;;;9.20;5.60;;;;;;;;;;4994104;28;20205;-80
2023/06/01 04:34:26;;;;;;;5.53;4.73;;;;;;;;;;5016856;28;20217;-80
2023/06/01 04:37:35;;;;;;;10.40;5.30;;;;;;;;;;4994783;28;20641;-80
2023/06/01 04:40:41;;;;;;;6.63;4.90;;;;;;;;;;4994953;28;20522;-81
2023/06/01 04:43:51;;;;;;;8.00;5.07;;;;;;;;;;4991029;28;20752;-80
2023/06/01 04:46:57;;;;;;;6.03;4.33;;;;;;;;;;4995344;28;20185;-81
2023/06/01 04:50:03;;;;;;;4.87;3.77;;;;;;;;;;4994894;28;20193;-80
2023/06/01 04:53:07;;;;;;;7.40;4.47;;;;;;;;;;5017598;28;20213;-80
2023/06/01 04:56:11;;;;;;;10.97;5.37;;;;;;;;;;5018224;28;20182;-79
2023/06/01 04:59:15;;;;;;;6.47;4.43;;;;;;;;;;5007690;28;20211;-80
2023/06/01 05:02:19;;;;;;;7.30;4.67;;;;;;;;;;5018596;28;20182;-79
2023/06/01 05:05:23;;;;;;;8.30;4.67;;;;;;;;;;5007750;28;20174;-80
2023/06/01 05:08:28;;;;;;;10.10;4.87;;;;;;;;;;5007419;28;20181;-80
2023/06/01 05:11:33;;;;;;;11.23;4.67;;;;;;;;;;5008270;28;20178;-80
2023/06/01 05:14:37;;;;;;;6.90;4.73;;;;;;;;;;5006758;28;20627;-80
2023/06/01 05:17:42;;;;;;;6.70;4.60;;;;;;;;;;5018002;28;20542;-81
2023/06/01 05:20:49;;;;;;;8.07;4.70;;;;;;;;;;5007708;28;20636;-80
2023/06/01 05:23:54;;;;;;;8.23;4.67;;;;;;;;;;5010287;28;20258;-79
2023/06/01 05:26:58;;;;;;;8.17;4.70;;;;;;;;;;5023789;28;20181;-79
2023/06/01 05:30:03;;;;;;;10.23;4.83;;;;;;;;;;5022147;28;20174;-79
2023/06/01 05:33:07;;;;;;;7.30;4.60;;;;;;;;;;5021152;28;20217;-79
2023/06/01 05:36:12;;;;;;;7.33;4.17;;;;;;;;;;5010223;28;20526;-79
2023/06/01 05:39:16;;;;;;;5.63;4.43;;;;;;;;;;5016486;28;20182;-79
2023/06/01 05:42:20;;;;;;;6.33;4.10;;;;;;;;;;5010857;28;20178;-79
2023/06/01 05:45:24;;;;;;;7.03;4.37;;;;;;;;;;5010402;28;20197;-79
2023/06/01 05:48:29;;;;;;;9.07;4.13;;;;;;;;;;5015956;28;20185;-79
2023/06/01 05:51:36;;;;;;;4.90;3.83;;;;;;;;;;5011493;28;20178;-79
2023/06/01 05:54:41;;;;;;;5.73;3.97;;;;;;;;;;5026627;28;20526;-80
2023/06/01 05:57:46;;;;;;;6.93;4.40;;;;;;;;;;5013880;28;20640;-79
2023/06/01 06:00:50;;;;;;;5.13;4.00;;;;;;;;;;4979213;28;20182;-79
2023/06/01 06:03:55;;;;;;;6.20;4.13;;;;;;;;;;4988167;28;20225;-79
2023/06/01 06:06:59;;;;;;;8.50;3.63;;;;;;;;;;4987791;28;20186;-79
2023/06/01 06:10:04;;;;;;;10.00;4.23;;;;;;;;;;4986893;28;20182;-79
2023/06/01 06:13:09;;;;;;;7.90;4.10;;;;;;;;;;4986546;28;20218;-79
2023/06/01 06:16:13;;;;;;;10.67;3.97;;;;;;;;;;4997932;28;20182;-78
2023/06/01 06:19:17;;;;;;;9.67;3.90;;;;;;;;;;4986068;28;20186;-79
2023/06/01 06:22:22;;;;;;;10.30;4.30;;;;;;;;;;4996804;28;20634;-79
2023/06/01 06:25:26;;;;;;;4.90;3.40;;;;;;;;;;4996906;28;20684;-79
2023/06/01 06:28:30;;;;;;;10.63;3.53;;;;;;;;;;4985325;28;20201;-79
2023/06/01 06:31:34;;;;;;;10.13;3.40;;;;;;;;;;4986568;28;20186;-79
2023/06/01 06:34:38;;;;;;;9.80;3.53;;;;;;;;;;4985731;28;20179;-78
2023/06/01 06:37:43;;;;;;;6.43;3.27;;;;;;;;;;4986283;28;20638;-80
2023/06/01 06:40:47;;;;;;;7.40;3.40;;;;;;;;;;4973090;28;20179;-80
2023/06/01 06:43:51;;;;;;;14.83;3.83;;;;;;;;;;4983601;28;20221;-81
2023/06/01 06:46:59;;;;;;;7.10;3.20;;;;;;;;;;4984053;28;20186;-81
2023/06/01 06:50:07;;;;;;;11.93;3.67;;;;;;;;;;4996308;28;20198;-83
2023/06/01 06:53:11;;;;;;;9.20;3.10;;;;;;;;;;4993974;28;20221;-84
2023/06/01 06:56:16;;;;;;;3.97;2.33;;;;;;;;;;4972007;28;20190;-85
2023/06/01 06:59:19;;;;;;;7.93;3.20;;;;;;;;;;4982615;28;20645;-85
2023/06/01 07:02:24;;;;;;;6.23;3.00;;;;;;;;;;4982762;28;20186;-84
2023/06/01 07:05:29;;;;;;;6.53;3.03;;;;;;;;;;4971912;28;20214;-84
2023/06/01 07:08:34;;;;;;;6.70;2.93;;;;;;;;;;4982710;28;20186;-85
2023/06/01 07:11:42;;;;;;;5.43;2.77;;;;;;;;;;4982928;28;20183;-85
2023/06/01 07:14:46;;;;;;;6.13;2.90;;;;;;;;;;4971487;28;20182;-85
2023/06/01 07:17:50;;;;;;;5.27;3.20;;;;;;;;;;4982664;28;20174;-84
2023/06/01 07:20:54;;;;;;;4.50;2.90;;;;;;;;;;4982338;28;20182;-85
2023/06/01 07:23:59;;;;;;;21.03;3.40;;;;;;;;;;4982588;28;20221;-85
2023/06/01 07:27:03;;;;;;;8.63;3.30;;;;;;;;;;4982987;28;20182;-85
2023/06/01 07:30:09;;;;;;;5.03;3.17;;;;;;;;;;4971055;28;20197;-85
2023/06/01 07:33:12;;;;;;;5.53;3.40;;;;;;;;;;4971451;28;20225;-84
2023/06/01 07:36:19;;;;;;;7.27;3.47;;;;;;;;;;4982134;28;20178;-85
2023/06/01 07:39:23;;;;;;;8.00;3.60;;;;;;;;;;4971292;28;20186;-85
2023/06/01 07:42:27;;;;;;;6.80;3.13;;;;;;;;;;4983436;28;20223;-80
2023/06/01 07:45:31;;;;;;;10.50;3.17;;;;;;;;;;4999880;28;20205;-86
2023/06/01 07:48:38;;;;;;;6.97;3.53;;;;;;;;;;4987499;28;20189;-86
2023/06/01 07:51:43;;;;;;;6.73;3.47;;;;;;;;;;5010671;28;20183;-87
2023/06/01 07:54:49;;;;;;;7.77;3.40;;;;;;;;;;5008330;28;20179;-86
2023/06/01 07:57:53;;;;;;;5.90;3.03;;;;;;;;;;5008966;28;20188;-87
2023/06/01 08:00:58;;;;;;;9.53;4.00;;;;;;;;;;5011871;28;20184;-87
2023/06/01 08:04:03;;;;;;;5.18;3.17;;;;;;;;;;4990443;28;20227;-86
2023/06/01 08:07:08;;;;;;;7.95;3.70;;;;;;;;;;4977854;28;20181;-86
2023/06/01 08:10:15;;;;;;;8.10;3.22;;;;;;;;;;4977070;28;20178;-86
2023/06/01 08:13:20;;;;;;;6.22;3.45;;;;;;;;;;4988078;28;20220;-85
2023/06/01 08:16:25;;;;;;;20.42;3.50;;;;;;;;;;4998932;28;20539;-86
2023/06/01 08:19:29;;;;;;;10.70;4.28;;;;;;;;;;4999579;28;20184;-85
2023/06/01 08:22:34;;;;;;;4.30;3.10;;;;;;;;;;4988147;28;20215;-85
2023/06/01 08:25:38;;;;;;;5.90;3.25;;;;;;;;;;4987867;28;20668;-86
2023/06/01 08:33:41;;;;;;;44.05;4.68;;;;;;;;;;4999911;28;20232;-88
2023/06/01 09:23:55;;;;;;;6.53;3.25;;;;;;;;;;4997729;28;20215;-87
2023/06/01 09:27:00;;;;;;;4.25;3.13;;;;;;;;;;4984565;28;20187;-85
2023/06/01 09:30:05;;;;;;;4.65;3.10;;;;;;;;;;4984265;28;20202;-89
2023/06/01 09:33:15;;;;;;;11.30;3.55;;;;;;;;;;4983898;28;20226;-88
2023/06/01 09:36:24;;;;;;;6.40;3.30;;;;;;;;;;4973277;28;20182;-87
2023/06/01 09:39:33;;;;;;;6.03;3.40;;;;;;;;;;4984546;28;20182;-84
2023/06/01 09:42:36;;;;;;;6.38;3.38;;;;;;;;;;4995996;28;20213;-83
2023/06/01 09:45:41;;;;;;;7.70;3.47;;;;;;;;;;4974216;28;20214;-84
2023/06/01 09:48:45;;;;;;;5.82;3.50;;;;;;;;;;4986469;28;20182;-84
2023/06/01 09:51:49;;;;;;;3.80;3.08;;;;;;;;;;4997321;28;20178;-84
2023/06/01 09:54:58;;;;;;;6.78;3.33;;;;;;;;;;4985874;28;20174;-84
2023/06/01 09:58:21;;;;;;;7.95;3.63;;;;;;;;;;4996683;28;20183;-84
2023/06/01 10:01:30;;;;;;;4.75;3.20;;;;;;;;;;4996644;28;20183;-84
2023/06/01 10:04:38;;;;;;;6.45;3.15;;;;;;;;;;4985152;28;20210;-84
2023/06/01 10:07:44;;;;;;;6.57;3.20;;;;;;;;;;4986194;28;20199;-84
2023/06/01 10:10:49;;;;;;;4.68;3.55;;;;;;;;;;4986255;28;20183;-84
2023/06/01 10:13:56;;;;;;;4.80;3.40;;;;;;;;;;4986195;28;20230;-84
2023/06/01 10:17:01;;;;;;;8.88;3.50;;;;;;;;;;4985733;28;20511;-84
2023/06/01 10:20:06;;;;;;;5.38;3.25;;;;;;;;;;4973953;28;20183;-84
2023/06/01 10:23:10;;;;;;;7.43;3.30;;;;;;;;;;4986228;28;20222;-84
2023/06/01 10:26:17;;;;;;;5.85;3.28;;;;;;;;;;4996782;28;20674;-84
2023/06/01 10:29:23;;;;;;;5.28;3.55;;;;;;;;;;4996212;28;20198;-84
2023/06/01 10:32:37;;;;;;;6.03;3.28;;;;;;;;;;4996054;28;20571;-84
2023/06/01 10:35:40;;;;;;;7.65;4.05;;;;;;;;;;4996281;28;20179;-84
2023/06/01 10:38:45;;;;;;;3.92;2.97;;;;;;;;;;4985263;28;20206;-84
2023/06/01 10:41:49;;;;;;;8.98;3.28;;;;;;;;;;4996727;28;20178;-84
2023/06/01 10:44:53;;;;;;;7.70;3.70;;;;;;;;;;4996187;28;20210;-83
2023/06/01 10:47:57;;;;;;;6.80;3.42;;;;;;;;;;4996569;28;20186;-83
2023/06/01 10:51:20;;;;;;;3.80;3.28;;;;;;;;;;4985626;28;20178;-83
2023/06/01 10:54:29;;;;;;;6.65;3.70;;;;;;;;;;4973823;28;20214;-83
2023/06/01 10:57:34;;;;;;;7.10;3.53;;;;;;;;;;4996715;28;20178;-83
2023/06/01 11:00:39;;;;;;;8.93;3.67;;;;;;;;;;4996161;28;20178;-83
2023/06/01 11:03:50;;;;;;;4.22;3.15;;;;;;;;;;4997165;28;20214;-83
2023/06/01 11:07:39;;;;;;;19.48;4.00;;;;;;;;;;4995576;28;20187;-84
2023/06/01 11:11:06;;;;;;;10.27;3.60;;;;;;;;;;4999700;28;20198;-87
2023/06/01 11:14:15;;;;;;;8.13;3.80;;;;;;;;;;4976445;28;20213;-87
2023/06/01 11:17:29;;;;;;;6.78;3.50;;;;;;;;;;4991190;28;20178;-86
2023/06/01 11:20:39;;;;;;;7.18;3.53;;;;;;;;;;5000641;28;20195;-87
2023/06/01 11:24:08;;;;;;;4.20;3.45;;;;;;;;;;4989087;28;20222;-87
2023/06/01 11:27:13;;;;;;;6.00;3.45;;;;;;;;;;4975382;28;20183;-86
2023/06/01 11:30:18;;;;;;;7.43;3.55;;;;;;;;;;4982986;28;20182;-86
2023/06/01 11:33:23;;;;;;;10.43;3.72;;;;;;;;;;4984226;28;20572;-85
2023/06/01 11:36:28;;;;;;;4.75;3.50;;;;;;;;;;4987383;28;20189;-86
2023/06/01 11:39:34;;;;;;;4.35;3.33;;;;;;;;;;4989930;28;20194;-84
2023/06/01 11:42:38;;;;;;;4.95;3.80;;;;;;;;;;4986815;28;20214;-85
2023/06/01 11:45:44;;;;;;;16.42;3.72;;;;;;;;;;4993819;28;20195;-86
2023/06/01 11:49:04;;;;;;;8.65;3.53;;;;;;;;;;5019219;28;20179;-86
2023/06/01 11:52:09;;;;;;;7.55;3.25;;;;;;;;;;5009266;28;20183;-87
2023/06/01 11:55:14;;;;;;;8.38;3.72;;;;;;;;;;5021092;28;20218;-86
2023/06/01 11:58:25;;;;;;;6.90;4.57;;;;;;;;;;5010076;28;20198;-86
2023/06/01 12:01:29;;;;;;;6.88;3.92;;;;;;;;;;4998934;28;20203;-86
2023/06/01 12:04:34;;;;;;;4.95;3.15;;;;;;;;;;5010588;28;20170;-87
2023/06/01 12:07:54;;;;;;;7.13;3.38;;;;;;;;;;5021019;28;20175;-86
2023/06/01 12:10:58;;;;;;;9.82;3.70;;;;;;;;;;4984528;28;20179;-86
2023/06/01 12:14:05;;;;;;;9.10;3.35;;;;;;;;;;4993032;28;20222;-85
2023/06/01 12:17:11;;;;;;;8.32;3.55;;;;;;;;;;4985486;28;20253;-85
2023/06/01 12:20:37;;;;;;;13.80;3.67;;;;;;;;;;4985258;28;20198;-85
2023/06/01 12:23:42;;;;;;;22.13;5.18;;;;;;;;;;4974713;28;20207;-84
2023/06/01 12:26:46;;;;;;;8.75;3.53;;;;;;;;;;4996405;28;20542;-85
2023/06/01 12:29:51;;;;;;;6.40;3.70;;;;;;;;;;4997396;28;20634;-83
2023/06/01 12:32:55;;;;;;;7.47;3.83;;;;;;;;;;4996236;28;20218;-84
2023/06/01 12:36:03;;;;;;;5.63;3.60;;;;;;;;;;4974525;28;20214;-84
2023/06/01 12:39:09;;;;;;;12.77;3.72;;;;;;;;;;4997829;28;20191;-84
2023/06/01 12:42:13;;;;;;;8.13;3.25;;;;;;;;;;4975917;28;20183;-83
2023/06/01 12:45:18;;;;;;;3.92;3.20;;;;;;;;;;4998230;28;20187;-83
2023/06/01 12:48:36;;;;;;;7.38;3.40;;;;;;;;;;4987082;28;20216;-83
2023/06/01 12:51:40;;;;;;;9.25;3.55;;;;;;;;;;4986203;28;20187;-83
2023/06/01 12:54:44;;;;;;;8.07;3.40;;;;;;;;;;4986831;28;20202;-84
2023/06/01 12:57:53;;;;;;;8.23;3.50;;;;;;;;;;4986839;28;20194;-83
2023/06/01 13:01:03;;;;;;;4.43;3.35;;;;;;;;;;4986613;28;20179;-86
2023/06/01 13:04:08;;;;;;;4.28;3.13;;;;;;;;;;4999972;28;20222;-85
2023/06/01 13:07:12;;;;;;;6.22;3.33;;;;;;;;;;4978676;28;20196;-85
2023/06/01 13:10:17;;;;;;;7.72;3.50;;;;;;;;;;4977809;28;20186;-85
2023/06/01 13:13:23;;;;;;;5.10;3.25;;;;;;;;;;4988066;28;20689;-87
2023/06/01 13:16:27;;;;;;;6.13;2.78;;;;;;;;;;4984308;28;20226;-84
2023/06/01 13:19:31;;;;;;;4.82;3.47;;;;;;;;;;4985307;28;20198;-83
2023/06/01 13:22:54;;;;;;;4.18;3.40;;;;;;;;;;4986288;28;20218;-84
2023/06/01 13:29:57;;;;;;;7.50;3.20;;;;;;;;;;4984628;28;20175;-85
2023/06/01 13:33:03;;;;;;;4.00;3.00;;;;;;;;;;4984714;28;20218;-85
2023/06/01 13:36:07;;;;;;;28.92;4.88;;;;;;;;;;4996238;28;20214;-85
2023/06/01 13:39:19;;;;;;;6.05;3.20;;;;;;;;;;4984477;28;20523;-85
2023/06/01 13:42:30;;;;;;;6.68;3.40;;;;;;;;;;4973361;28;20187;-85
2023/06/01 13:45:36;;;;;;;4.45;3.03;;;;;;;;;;4996154;28;20634;-85
2023/06/01 13:48:40;;;;;;;10.13;3.40;;;;;;;;;;4985060;28;20183;-85
2023/06/01 13:51:44;;;;;;;7.07;3.38;;;;;;;;;;4984541;28;20634;-85
2023/06/01 13:54:48;;;;;;;6.20;3.70;;;;;;;;;;4973642;28;20186;-86
2023/06/01 13:57:53;;;;;;;4.30;2.97;;;;;;;;;;4973631;28;20175;-85
2023/06/01 14:00:57;;;;;;;4.82;2.80;;;;;;;;;;4995960;28;20186;-85
2023/06/01 14:04:01;;;;;;;5.72;3.28;;;;;;;;;;4984231;28;20214;-85
2023/06/01 14:07:05;;;;;;;5.18;3.13;;;;;;;;;;4983921;28;20195;-85
2023/06/01 14:10:10;;;;;;;4.72;2.83;;;;;;;;;;4995061;28;20198;-85
2023/06/01 14:13:15;;;;;;;4.88;3.13;;;;;;;;;;4983645;28;20574;-85
2023/06/01 14:16:19;;;;;;;4.00;3.35;;;;;;;;;;4983351;28;20218;-85
2023/06/01 14:19:25;;;;;;;6.68;3.15;;;;;;;;;;4995129;28;20183;-84
2023/06/01 14:22:30;;;;;;;3.58;2.97;;;;;;;;;;4984146;28;20211;-85
2023/06/01 14:25:35;;;;;;;24.55;3.92;;;;;;;;;;4983955;28;20171;-85
2023/06/01 14:28:39;;;;;;;6.82;3.08;;;;;;;;;;4994538;28;20190;-85
2023/06/01 14:31:43;;;;;;;5.10;3.33;;;;;;;;;;4983846;28;20634;-85
2023/06/01 14:34:47;;;;;;;5.20;3.25;;;;;;;;;;4983493;28;20209;-85
2023/06/01 14:37:52;;;;;;;5.47;2.92;;;;;;;;;;4983665;28;20178;-85
2023/06/01 14:40:56;;;;;;;10.95;3.25;;;;;;;;;;4972596;28;20182;-85
2023/06/01 14:44:00;;;;;;;4.45;2.95;;;;;;;;;;4972419;28;20214;-85
2023/06/01 14:47:05;;;;;;;6.05;2.90;;;;;;;;;;4983136;28;20179;-85
2023/06/01 14:50:09;;;;;;;7.00;3.10;;;;;;;;;;4993946;28;20550;-85
2023/06/01 14:53:14;;;;;;;6.43;3.00;;;;;;;;;;4983034;28;20218;-85
2023/06/01 14:56:18;;;;;;;10.73;3.05;;;;;;;;;;4971715;28;20210;-85
2023/06/01 14:59:23;;;;;;;7.03;2.60;;;;;;;;;;4971733;28;20186;-85
2023/06/01 15:02:28;;;;;;;9.70;2.97;;;;;;;;;;4982972;28;20222;-85
2023/06/01 15:05:33;;;;;;;7.03;2.75;;;;;;;;;;4982714;28;20206;-85
2023/06/01 15:08:37;;;;;;;7.80;3.00;;;;;;;;;;4993212;28;20202;-85
2023/06/01 15:12:07;;;;;;;5.80;2.60;;;;;;;;;;4994874;28;20178;-85
2023/06/01 15:15:18;;;;;;;25.25;7.10;;;;;;;;;;4971864;28;20625;-87
2023/06/01 15:18:22;;;;;;;3.83;2.92;;;;;;;;;;4971643;28;20179;-84
2023/06/01 15:21:27;;;;;;;6.38;3.25;;;;;;;;;;4972158;28;20183;-85
2023/06/01 15:24:32;;;;;;;4.25;2.60;;;;;;;;;;4971631;28;20582;-85
2023/06/01 15:27:36;;;;;;;7.32;2.90;;;;;;;;;;4971982;28;20178;-85
2023/06/01 15:30:41;;;;;;;5.10;3.13;;;;;;;;;;4982947;28;20186;-85
2023/06/01 15:33:45;;;;;;;4.22;2.80;;;;;;;;;;4982924;28;20226;-85
2023/06/01 15:36:49;;;;;;;5.43;2.63;;;;;;;;;;4982696;28;20218;-85
2023/06/01 15:39:54;;;;;;;3.53;2.50;;;;;;;;;;4983226;28;20178;-85
2023/06/01 15:42:59;;;;;;;4.63;2.80;;;;;;;;;;4971554;28;20224;-86
2023/06/01 15:46:05;;;;;;;3.85;2.83;;;;;;;;;;4983007;28;20184;-85
2023/06/01 15:49:09;;;;;;;7.82;3.22;;;;;;;;;;4982338;28;20550;-85
2023/06/01 15:52:13;;;;;;;5.97;2.85;;;;;;;;;;4993868;28;20186;-85
2023/06/01 15:55:17;;;;;;;6.80;2.78;;;;;;;;;;4982732;28;20187;-85
2023/06/01 15:58:21;;;;;;;9.75;3.20;;;;;;;;;;4971443;28;20641;-85
2023/06/01 16:01:25;;;;;;;4.43;3.17;;;;;;;;;;4982982;28;20186;-85
2023/06/01 16:04:30;;;;;;;15.60;3.45;;;;;;;;;;4970973;28;20225;-85
2023/06/01 16:07:34;;;;;;;13.85;3.85;;;;;;;;;;4972056;28;20181;-85
2023/06/01 16:10:38;;;;;;;6.55;2.88;;;;;;;;;;4993904;28;20178;-85
2023/06/01 16:13:43;;;;;;;5.30;2.47;;;;;;;;;;4982381;28;20580;-86
2023/06/01 16:16:48;;;;;;;7.15;2.67;;;;;;;;;;4994136;28;20212;-86
2023/06/01 16:19:52;;;;;;;5.65;2.55;;;;;;;;;;4996257;28;20190;-87
2023/06/01 16:22:56;;;;;;;4.78;2.53;;;;;;;;;;4985983;28;20224;-86
2023/06/01 16:26:00;;;;;;;4.53;2.55;;;;;;;;;;4985651;28;20186;-86
2023/06/01 16:29:04;;;;;;;5.30;2.67;;;;;;;;;;4974642;28;20522;-87
2023/06/01 16:32:09;;;;;;;5.88;2.95;;;;;;;;;;4985668;28;20180;-86
2023/06/01 16:35:14;;;;;;;7.45;2.90;;;;;;;;;;4974505;28;20512;-85
2023/06/01 16:38:19;;;;;;;6.03;2.92;;;;;;;;;;4985945;28;20189;-85
2023/06/01 16:41:23;;;;;;;17.45;3.42;;;;;;;;;;4974490;28;20185;-87
2023/06/01 16:44:28;;;;;;;4.03;2.47;;;;;;;;;;4985447;28;20217;-87
2023/06/01 16:47:32;;;;;;;4.20;2.90;;;;;;;;;;4974320;28;20174;-87
2023/06/01 16:50:36;;;;;;;4.18;2.55;;;;;;;;;;4985150;28;20186;-87
2023/06/01 16:53:40;;;;;;;10.75;2.70;;;;;;;;;;4985582;28;20712;-87
2023/06/01 16:56:44;;;;;;;9.43;2.88;;;;;;;;;;4996783;28;20214;-87
2023/06/01 16:59:48;;;;;;;7.78;2.50;;;;;;;;;;4985348;28;20178;-87
2023/06/01 17:02:52;;;;;;;3.97;2.38;;;;;;;;;;4973859;28;20213;-87
2023/06/01 17:05:56;;;;;;;3.08;2.33;;;;;;;;;;4973680;28;20183;-87
2023/06/01 17:09:01;;;;;;;7.90;2.80;;;;;;;;;;4974068;28;20522;-87
2023/06/01 17:12:06;;;;;;;7.75;2.85;;;;;;;;;;4974027;28;20203;-87
2023/06/01 17:15:11;;;;;;;6.07;2.40;;;;;;;;;;4973737;28;20198;-86
2023/06/01 17:18:15;;;;;;;4.88;2.92;;;;;;;;;;4995568;28;20209;-87
2023/06/01 17:21:19;;;;;;;5.07;2.47;;;;;;;;;;4972683;28;20511;-87
2023/06/01 17:24:24;;;;;;;7.18;2.50;;;;;;;;;;4972845;28;20537;-87
2023/06/01 17:27:27;;;;;;;4.33;2.30;;;;;;;;;;4972894;28;20602;-86
2023/06/01 17:30:32;;;;;;;4.10;2.33;;;;;;;;;;4983174;28;20182;-86
2023/06/01 17:33:36;;;;;;;4.30;2.00;;;;;;;;;;4984022;28;20223;-86
2023/06/01 17:36:41;;;;;;;4.30;2.30;;;;;;;;;;4994858;28;20219;-86
2023/06/01 17:39:46;;;;;;;4.80;1.90;;;;;;;;;;4995075;28;20183;-87
2023/06/01 17:42:50;;;;;;;3.70;2.07;;;;;;;;;;4996395;28;20215;-87
2023/06/01 17:45:54;;;;;;;2.97;2.10;;;;;;;;;;4995779;28;20527;-87
2023/06/01 17:48:59;;;;;;;9.40;2.13;;;;;;;;;;4984115;28;20599;-87
2023/06/01 17:52:04;;;;;;;2.83;2.20;;;;;;;;;;4972725;28;20187;-87
2023/06/01 17:55:09;;;;;;;6.90;2.20;;;;;;;;;;4983992;28;20186;-86
2023/06/01 17:58:13;;;;;;;17.93;2.60;;;;;;;;;;4983513;28;20223;-87
2023/06/01 18:01:17;;;;;;;3.50;2.20;;;;;;;;;;4983538;28;20189;-87
2023/06/01 18:04:21;;;;;;;5.70;2.27;;;;;;;;;;4994988;28;20217;-86
2023/06/01 18:07:28;;;;;;;4.40;2.00;;;;;;;;;;4984071;28;20182;-87
2023/06/01 18:10:33;;;;;;;6.03;2.13;;;;;;;;;;4983641;28;20186;-87
2023/06/01 18:13:37;;;;;;;7.40;2.30;;;;;;;;;;4983250;28;20216;-86
2023/06/01 18:16:42;;;;;;;4.73;2.07;;;;;;;;;;4983982;28;20183;-83
2023/06/01 18:19:46;;;;;;;4.37;2.10;;;;;;;;;;4985052;28;20185;-83
2023/06/01 18:22:51;;;;;;;8.57;2.10;;;;;;;;;;4995109;28;20211;-83
2023/06/01 18:25:55;;;;;;;3.20;2.00;;;;;;;;;;4984291;28;20183;-82
2023/06/01 18:28:59;;;;;;;6.17;2.30;;;;;;;;;;4984883;28;20519;-82
2023/06/01 18:32:03;;;;;;;3.53;2.33;;;;;;;;;;4984665;28;20200;-83
2023/06/01 18:35:07;;;;;;;4.17;2.03;;;;;;;;;;4985179;28;20184;-84
2023/06/01 18:38:11;;;;;;;2.70;1.90;;;;;;;;;;4984688;28;20678;-84
2023/06/01 18:41:16;;;;;;;3.80;2.27;;;;;;;;;;4984678;28;20174;-82
2023/06/01 18:44:20;;;;;;;8.00;2.30;;;;;;;;;;4984458;28;20560;-82
2023/06/01 18:47:24;;;;;;;5.23;2.03;;;;;;;;;;4985074;28;20178;-82
2023/06/01 18:50:29;;;;;;;5.53;1.90;;;;;;;;;;4995483;28;20178;-82
2023/06/01 18:53:34;;;;;;;3.60;2.07;;;;;;;;;;4995631;28;20221;-83
2023/06/01 18:56:38;;;;;;;3.50;1.90;;;;;;;;;;4984499;28;20182;-83
2023/06/01 18:59:45;;;;;;;5.03;2.30;;;;;;;;;;5033623;23;20233;-83
2023/06/01 19:02:49;;;;;;;7.17;2.07;;;;;;;;;;5002820;28;20193;-83
2023/06/01 19:05:55;;;;;;;9.03;2.23;;;;;;;;;;5013249;28;20181;-83
2023/06/01 19:09:02;;;;;;;4.60;2.10;;;;;;;;;;4994260;28;20238;-83
2023/06/01 19:12:07;;;;;;;5.40;2.10;;;;;;;;;;5007128;28;20178;-83
2023/06/01 19:15:11;;;;;;;3.77;2.00;;;;;;;;;;4983885;28;20526;-83
2023/06/01 19:18:16;;;;;;;5.10;2.07;;;;;;;;;;4994920;28;20313;-83
2023/06/01 19:21:31;;;;;;;4.73;2.20;;;;;;;;;;4994939;28;20190;-83
2023/06/01 19:24:35;;;;;;;3.57;2.20;;;;;;;;;;4994533;28;20194;-83
2023/06/01 19:27:42;;;;;;;3.17;1.70;;;;;;;;;;4994925;28;20210;-83